createdAt,value
2018-09-21T00:00:21.886Z,99.90
2018-09-21T00:02:50.800Z,99.90
2018-09-21T00:05:19.442Z,99.90
2018-09-21T00:07:47.947Z,99.90
2018-09-21T00:10:16.390Z,99.90
2018-09-21T00:12:44.794Z,99.90
2018-09-21T00:15:13.315Z,99.90
2018-09-21T00:17:41.751Z,99.90
2018-09-21T00:20:10.195Z,99.90
2018-09-21T00:22:38.671Z,99.90
2018-09-21T00:25:07.139Z,99.90
2018-09-21T00:27:35.570Z,99.90
2018-09-21T00:30:04.103Z,99.90
2018-09-21T00:32:32.534Z,99.90
2018-09-21T00:35:00.976Z,99.90
2018-09-21T00:37:29.470Z,99.90
2018-09-21T00:39:57.890Z,99.90
2018-09-21T00:42:26.330Z,99.90
2018-09-21T00:44:54.852Z,99.90
2018-09-21T00:47:23.277Z,99.90
2018-09-21T00:49:51.711Z,99.90
2018-09-21T00:52:20.194Z,99.90
2018-09-21T00:54:48.624Z,99.90
2018-09-21T00:57:17.111Z,99.90
2018-09-21T00:59:45.623Z,99.90
2018-09-21T01:02:14.054Z,99.90
2018-09-21T01:04:42.481Z,99.90
2018-09-21T01:07:12.225Z,99.90
2018-09-21T01:09:40.706Z,99.90
2018-09-21T01:12:09.200Z,99.90
2018-09-21T01:14:37.670Z,99.90
2018-09-21T01:17:06.370Z,99.90
2018-09-21T01:19:34.806Z,99.90
2018-09-21T01:22:03.815Z,99.90
2018-09-21T01:24:32.266Z,99.90
2018-09-21T01:27:00.721Z,99.90
2018-09-21T01:29:29.242Z,99.90
2018-09-21T01:31:57.687Z,99.90
2018-09-21T01:34:26.170Z,99.90
2018-09-21T01:36:54.668Z,99.90
2018-09-21T01:39:23.135Z,99.90
2018-09-21T01:41:51.586Z,99.90
2018-09-21T01:44:20.082Z,99.90
2018-09-21T01:46:48.601Z,99.90
2018-09-21T01:49:17.096Z,99.90
2018-09-21T01:51:45.630Z,99.90
2018-09-21T01:54:14.095Z,99.90
2018-09-21T01:56:42.539Z,99.90
2018-09-21T01:59:11.082Z,99.90
2018-09-21T02:01:39.538Z,99.90
2018-09-21T02:04:08.022Z,99.90
2018-09-21T02:06:36.546Z,99.90
2018-09-21T02:09:06.910Z,99.90
2018-09-21T02:11:35.346Z,99.90
2018-09-21T02:14:03.867Z,99.90
2018-09-21T02:16:32.312Z,99.90
2018-09-21T02:19:00.791Z,99.90
2018-09-21T02:21:29.272Z,99.90
2018-09-21T02:23:57.728Z,99.90
2018-09-21T02:26:26.174Z,99.90
2018-09-21T02:28:54.755Z,99.90
2018-09-21T02:31:23.217Z,99.90
2018-09-21T02:33:51.679Z,99.90
2018-09-21T02:36:20.182Z,99.90
2018-09-21T02:38:48.655Z,99.90
2018-09-21T02:41:17.168Z,99.90
2018-09-21T02:43:45.662Z,99.90
2018-09-21T02:46:14.124Z,99.90
2018-09-21T02:48:42.667Z,99.90
2018-09-21T02:51:11.134Z,99.90
2018-09-21T02:53:39.590Z,99.90
2018-09-21T02:56:08.076Z,99.90
2018-09-21T02:58:36.574Z,99.90
2018-09-21T03:01:05.080Z,99.90
2018-09-21T03:03:33.523Z,99.90
2018-09-21T03:06:02.007Z,99.90
2018-09-21T03:08:30.430Z,99.90
2018-09-21T03:10:59.311Z,99.90
2018-09-21T03:13:27.764Z,99.90
2018-09-21T03:15:56.227Z,99.90
2018-09-21T03:18:24.669Z,99.90
2018-09-21T03:20:53.118Z,99.90
2018-09-21T03:23:21.539Z,99.90
2018-09-21T03:25:49.978Z,99.90
2018-09-21T03:28:18.522Z,99.90
2018-09-21T03:30:46.979Z,99.90
2018-09-21T03:33:15.393Z,99.90
2018-09-21T03:35:43.896Z,99.90
2018-09-21T03:38:12.330Z,99.90
2018-09-21T03:40:40.784Z,99.90
2018-09-21T03:43:10.075Z,99.90
2018-09-21T03:45:38.633Z,99.90
2018-09-21T03:48:07.185Z,99.90
2018-09-21T03:50:35.638Z,99.90
2018-09-21T03:53:04.140Z,99.90
2018-09-21T03:55:32.559Z,99.90
2018-09-21T03:58:01.102Z,99.90
2018-09-21T04:00:29.530Z,99.90
2018-09-21T04:02:57.999Z,99.90
2018-09-21T04:05:27.238Z,99.90
2018-09-21T04:07:55.694Z,99.90
2018-09-21T04:10:24.158Z,99.90
2018-09-21T04:12:52.663Z,99.90
2018-09-21T04:15:21.132Z,99.90
2018-09-21T04:17:49.589Z,99.90
2018-09-21T04:23:04.262Z,99.90
2018-09-21T04:25:33.176Z,99.90
2018-09-21T04:28:01.729Z,99.90
2018-09-21T04:30:30.261Z,99.90
2018-09-21T04:32:59.094Z,99.90
2018-09-21T04:35:27.626Z,99.90
2018-09-21T04:37:56.163Z,99.90
2018-09-21T04:40:24.647Z,99.90
2018-09-21T04:42:53.109Z,99.90
2018-09-21T04:45:21.663Z,99.90
2018-09-21T04:47:50.107Z,99.90
2018-09-21T04:50:18.557Z,99.90
2018-09-21T04:52:47.062Z,99.90
2018-09-21T04:55:15.523Z,99.90
2018-09-21T04:57:43.970Z,99.90
2018-09-21T05:00:12.526Z,99.90
2018-09-21T05:02:40.994Z,99.90
2018-09-21T05:05:09.503Z,99.90
2018-09-21T05:07:38.010Z,99.90
2018-09-21T05:10:06.532Z,99.90
2018-09-21T05:12:34.994Z,99.90
2018-09-21T05:15:03.539Z,99.90
2018-09-21T05:17:32.047Z,99.90
2018-09-21T05:20:00.531Z,99.90
2018-09-21T05:22:29.062Z,99.90
2018-09-21T05:24:57.543Z,99.90
2018-09-21T05:27:26.062Z,99.90
2018-09-21T05:29:54.522Z,99.90
2018-09-21T05:32:22.998Z,99.90
2018-09-21T05:34:51.566Z,99.90
2018-09-21T05:37:20.003Z,99.90
2018-09-21T05:39:48.470Z,99.90
2018-09-21T05:42:16.903Z,99.90
2018-09-21T05:44:45.379Z,99.90
2018-09-21T05:47:13.920Z,99.90
2018-09-21T05:49:42.321Z,99.90
2018-09-21T05:52:11.304Z,99.90
2018-09-21T05:54:39.755Z,99.30
2018-09-21T05:57:08.274Z,98.50
2018-09-21T05:59:36.805Z,98.20
2018-09-21T06:02:05.313Z,97.80
2018-09-21T06:04:33.758Z,97.20
2018-09-21T06:07:02.323Z,96.50
2018-09-21T06:09:30.987Z,96.40
2018-09-21T06:11:59.426Z,96.20
2018-09-21T06:14:27.976Z,95.60
2018-09-21T06:16:56.422Z,95.20
2018-09-21T06:19:24.920Z,94.90
2018-09-21T06:21:53.466Z,94.70
2018-09-21T06:24:21.955Z,94.40
2018-09-21T06:26:50.388Z,94.20
2018-09-21T06:29:18.874Z,93.50
2018-09-21T06:31:47.355Z,93.10
2018-09-21T06:34:15.750Z,92.80
2018-09-21T06:36:44.239Z,92.50
2018-09-21T06:39:13.091Z,92.10
2018-09-21T06:41:41.522Z,92.00
2018-09-21T06:44:10.134Z,91.40
2018-09-21T06:46:38.592Z,91.40
2018-09-21T06:49:07.050Z,91.00
2018-09-21T06:51:35.499Z,90.90
2018-09-21T06:54:03.949Z,90.60
2018-09-21T06:56:32.395Z,90.20
2018-09-21T06:59:00.862Z,90.20
2018-09-21T07:01:29.357Z,89.20
2018-09-21T07:03:57.841Z,88.80
2018-09-21T07:06:26.387Z,88.90
2018-09-21T07:08:54.892Z,87.50
2018-09-21T07:11:23.352Z,87.70
2018-09-21T07:13:52.166Z,87.30
2018-09-21T07:16:20.667Z,87.30
2018-09-21T07:18:49.166Z,86.70
2018-09-21T07:21:17.717Z,85.90
2018-09-21T07:23:46.172Z,85.40
2018-09-21T07:26:14.621Z,84.50
2018-09-21T07:28:43.143Z,83.30
2018-09-21T07:31:11.667Z,82.70
2018-09-21T07:33:40.266Z,82.00
2018-09-21T07:36:08.751Z,82.40
2018-09-21T07:38:37.202Z,82.00
2018-09-21T07:41:05.783Z,81.40
2018-09-21T07:43:34.334Z,79.50
2018-09-21T07:46:02.771Z,79.80
2018-09-21T07:48:31.318Z,78.80
2018-09-21T07:50:59.846Z,79.20
2018-09-21T07:53:28.362Z,78.50
2018-09-21T07:55:56.862Z,78.50
2018-09-21T07:58:25.471Z,78.70
2018-09-21T08:00:54.049Z,79.20
2018-09-21T08:03:22.486Z,78.60
2018-09-21T08:05:51.094Z,79.40
2018-09-21T08:08:19.551Z,79.30
2018-09-21T08:10:48.023Z,78.70
2018-09-21T08:13:16.758Z,79.00
2018-09-21T08:15:45.186Z,79.20
2018-09-21T08:18:13.641Z,79.30
2018-09-21T08:20:42.186Z,79.10
2018-09-21T08:23:10.877Z,79.30
2018-09-21T08:25:39.442Z,79.30
2018-09-21T08:28:07.985Z,79.80
2018-09-21T08:30:36.445Z,79.10
2018-09-21T08:33:04.913Z,78.80
2018-09-21T08:35:33.474Z,78.30
2018-09-21T08:38:01.945Z,77.60
2018-09-21T08:40:30.435Z,76.80
2018-09-21T08:42:59.020Z,76.80
2018-09-21T08:45:27.520Z,76.90
2018-09-21T08:47:55.974Z,76.80
2018-09-21T08:50:24.569Z,76.20
2018-09-21T08:52:53.492Z,75.80
2018-09-21T08:55:21.959Z,76.00
2018-09-21T08:57:50.442Z,76.30
2018-09-21T09:00:18.915Z,76.20
2018-09-21T09:02:47.457Z,75.70
2018-09-21T09:05:15.961Z,75.80
2018-09-21T09:07:44.434Z,76.00
2018-09-21T09:10:12.911Z,76.20
2018-09-21T09:12:41.459Z,76.10
2018-09-21T09:15:09.903Z,75.80
2018-09-21T09:17:38.352Z,75.10
2018-09-21T09:20:07.733Z,74.10
2018-09-21T09:22:36.192Z,73.80
2018-09-21T09:25:05.425Z,73.00
2018-09-21T09:27:33.904Z,72.40
2018-09-21T09:30:02.831Z,72.30
2018-09-21T09:32:31.294Z,72.10
2018-09-21T09:34:59.787Z,72.60
2018-09-21T09:37:28.254Z,72.00
2018-09-21T09:39:56.711Z,71.80
2018-09-21T09:42:25.302Z,71.40
2018-09-21T09:44:53.760Z,71.00
2018-09-21T09:47:22.243Z,70.30
2018-09-21T09:49:50.774Z,70.30
2018-09-21T09:52:19.227Z,69.50
2018-09-21T09:54:47.712Z,69.10
2018-09-21T09:57:16.182Z,68.80
2018-09-21T09:59:44.661Z,68.30
2018-09-21T10:02:13.114Z,67.50
2018-09-21T10:04:41.618Z,66.40
2018-09-21T10:07:10.174Z,66.30
2018-09-21T10:09:38.612Z,66.20
2018-09-21T10:12:07.082Z,66.50
2018-09-21T10:14:35.494Z,66.60
2018-09-21T10:17:03.949Z,65.70
2018-09-21T10:19:32.467Z,65.70
2018-09-21T10:22:00.915Z,64.80
2018-09-21T10:24:29.426Z,65.00
2018-09-21T10:26:57.960Z,64.30
2018-09-21T10:29:26.375Z,65.20
2018-09-21T10:31:54.835Z,64.20
2018-09-21T10:34:23.346Z,63.60
2018-09-21T10:36:51.882Z,63.30
2018-09-21T10:39:20.524Z,63.50
2018-09-21T10:41:48.866Z,64.00
2018-09-21T10:44:17.377Z,63.60
2018-09-21T10:46:46.097Z,64.50
2018-09-21T10:49:14.618Z,64.40
2018-09-21T10:51:43.083Z,65.50
2018-09-21T10:54:11.529Z,64.40
2018-09-21T10:56:40.030Z,63.30
2018-09-21T10:59:08.486Z,63.00
2018-09-21T11:01:36.945Z,62.60
2018-09-21T11:04:05.589Z,62.40
2018-09-21T11:06:34.078Z,61.90
2018-09-21T11:09:02.601Z,62.20
2018-09-21T11:11:31.249Z,61.50
2018-09-21T11:13:59.719Z,62.10
2018-09-21T11:16:28.194Z,62.40
2018-09-21T11:18:56.659Z,62.90
2018-09-21T11:21:25.114Z,62.50
2018-09-21T11:23:53.568Z,62.90
2018-09-21T11:26:22.058Z,61.80
2018-09-21T11:28:50.538Z,62.40
2018-09-21T11:31:18.980Z,60.50
2018-09-21T11:33:47.530Z,60.80
2018-09-21T11:36:16.003Z,61.20
2018-09-21T11:38:44.481Z,60.80
2018-09-21T11:41:13.210Z,60.80
2018-09-21T11:43:41.650Z,60.50
2018-09-21T11:46:10.162Z,60.80
2018-09-21T11:48:38.630Z,60.50
2018-09-21T11:51:07.116Z,60.10
2018-09-21T11:53:35.586Z,59.80
2018-09-21T11:56:04.084Z,60.00
2018-09-21T11:58:32.538Z,60.30
2018-09-21T12:01:00.972Z,60.60
2018-09-21T12:03:29.430Z,60.70
2018-09-21T12:05:57.919Z,60.20
2018-09-21T12:08:26.381Z,60.00
2018-09-21T12:10:54.911Z,60.20
2018-09-21T12:13:23.358Z,60.50
2018-09-21T12:15:51.824Z,60.80
2018-09-21T12:18:20.350Z,60.90
2018-09-21T12:20:48.842Z,61.30
2018-09-21T12:23:17.296Z,62.50
2018-09-21T12:25:45.815Z,62.10
2018-09-21T12:28:14.293Z,62.00
2018-09-21T12:30:42.751Z,62.10
2018-09-21T12:33:11.244Z,62.00
2018-09-21T12:35:39.708Z,62.30
2018-09-21T12:38:08.317Z,62.70
2018-09-21T12:40:36.807Z,63.20
2018-09-21T12:43:05.400Z,64.10
2018-09-21T12:45:33.918Z,65.00
2018-09-21T12:48:02.435Z,66.20
2018-09-21T12:50:30.979Z,67.80
2018-09-21T12:52:59.363Z,69.40
2018-09-21T12:55:27.868Z,70.80
2018-09-21T12:57:56.412Z,72.80
2018-09-21T13:00:24.876Z,74.00
2018-09-21T13:02:53.420Z,76.00
2018-09-21T13:05:21.899Z,78.30
2018-09-21T13:07:50.354Z,79.90
2018-09-21T13:10:18.863Z,81.00
2018-09-21T13:12:47.316Z,80.60
2018-09-21T13:15:15.754Z,81.50
2018-09-21T13:17:44.266Z,82.10
2018-09-21T13:20:12.707Z,82.60
2018-09-21T13:22:41.146Z,82.20
2018-09-21T13:25:09.618Z,82.30
2018-09-21T13:27:38.055Z,82.30
2018-09-21T13:30:06.650Z,83.10
2018-09-21T13:32:35.108Z,84.90
2018-09-21T13:35:03.595Z,89.20
2018-09-21T13:37:32.026Z,92.00
2018-09-21T13:40:00.883Z,93.70
2018-09-21T13:42:29.362Z,98.40
2018-09-21T13:44:57.814Z,99.90
2018-09-21T13:47:26.287Z,99.90
2018-09-21T13:49:54.711Z,99.90
2018-09-21T13:52:23.147Z,99.90
2018-09-21T13:54:52.618Z,99.90
2018-09-21T13:57:21.089Z,99.90
2018-09-21T13:59:49.555Z,99.90
2018-09-21T14:02:18.076Z,99.90
2018-09-21T14:04:46.769Z,99.90
2018-09-21T14:07:15.248Z,99.90
2018-09-21T14:09:43.734Z,99.90
2018-09-21T14:12:12.291Z,99.90
2018-09-21T14:14:40.762Z,99.90
2018-09-21T14:17:10.038Z,99.90
2018-09-21T14:19:38.489Z,99.90
2018-09-21T14:22:07.059Z,99.90
2018-09-21T14:24:35.783Z,99.90
2018-09-21T14:33:50.722Z,99.90
2018-09-21T14:36:22.096Z,99.90
2018-09-21T14:38:50.577Z,99.90
2018-09-21T14:41:19.156Z,99.90
2018-09-21T14:43:47.674Z,99.90
2018-09-21T14:46:16.152Z,99.90
2018-09-21T14:48:46.984Z,99.90
2018-09-21T14:51:15.478Z,99.90
2018-09-21T14:53:43.974Z,99.90
2018-09-21T14:56:12.566Z,99.90
2018-09-21T14:58:41.026Z,99.90
2018-09-21T15:01:09.514Z,99.90
2018-09-21T15:03:38.104Z,99.90
2018-09-21T15:06:06.622Z,99.90
2018-09-21T15:08:35.136Z,99.90
2018-09-21T15:11:03.711Z,99.90
2018-09-21T15:13:32.201Z,99.90
2018-09-21T15:16:00.903Z,99.90
2018-09-21T15:18:29.459Z,99.90
2018-09-21T15:20:57.917Z,99.90
2018-09-21T15:23:26.539Z,99.90
2018-09-21T15:25:55.194Z,99.90
2018-09-21T15:28:23.682Z,99.90
2018-09-21T15:30:52.798Z,99.90
2018-09-21T15:33:21.403Z,99.90
2018-09-21T15:35:49.899Z,99.90
2018-09-21T15:38:18.366Z,99.90
2018-09-21T15:40:46.967Z,99.90
2018-09-21T15:43:15.631Z,99.90
2018-09-21T15:45:44.082Z,99.90
2018-09-21T15:48:12.595Z,99.90
2018-09-21T15:50:41.098Z,99.90
2018-09-21T15:53:09.550Z,99.90
2018-09-21T15:55:38.027Z,99.90
2018-09-21T15:58:06.727Z,99.90
2018-09-21T16:00:35.194Z,99.90
2018-09-21T16:03:03.689Z,99.90
2018-09-21T16:05:32.153Z,99.90
2018-09-21T16:08:04.034Z,99.90
2018-09-21T16:10:32.618Z,99.90
2018-09-21T16:13:01.058Z,99.90
2018-09-21T16:15:29.555Z,99.90
2018-09-21T16:17:58.074Z,99.90
2018-09-21T16:20:26.507Z,99.90
2018-09-21T16:22:54.970Z,99.90
2018-09-21T16:25:23.485Z,99.90
2018-09-21T16:27:51.915Z,99.90
2018-09-21T16:30:20.345Z,99.90
2018-09-21T16:32:48.914Z,99.90
2018-09-21T16:35:17.295Z,99.90
2018-09-21T16:37:45.786Z,99.90
2018-09-21T16:40:14.289Z,99.90
2018-09-21T16:42:46.962Z,99.90
2018-09-21T16:45:15.488Z,99.90
2018-09-21T16:47:43.939Z,99.90
2018-09-21T16:50:12.362Z,99.90
2018-09-21T16:52:40.866Z,99.90
2018-09-21T16:55:08.922Z,99.90
2018-09-21T16:57:37.396Z,99.90
2018-09-21T17:00:06.999Z,99.90
2018-09-21T17:02:35.718Z,99.90
2018-09-21T17:05:04.218Z,99.90
2018-09-21T17:07:32.735Z,99.90
2018-09-21T17:10:01.319Z,99.90
2018-09-21T17:12:29.759Z,99.90
2018-09-21T17:14:58.214Z,99.90
2018-09-21T17:17:26.651Z,99.90
2018-09-21T17:19:55.075Z,99.90
2018-09-21T17:22:23.554Z,99.90
2018-09-21T17:24:52.048Z,99.90
2018-09-21T17:27:20.555Z,99.90
2018-09-21T17:29:49.169Z,99.90
2018-09-21T17:32:17.653Z,99.90
2018-09-21T17:34:46.146Z,99.90
2018-09-21T17:37:14.626Z,99.90
2018-09-21T17:39:43.062Z,99.90
2018-09-21T17:42:11.551Z,99.90
2018-09-21T17:44:40.019Z,99.90
2018-09-21T17:47:08.476Z,99.90
2018-09-21T17:49:36.947Z,99.90
2018-09-21T17:52:05.458Z,99.90
2018-09-21T17:54:34.105Z,99.90
2018-09-21T17:57:02.578Z,99.40
2018-09-21T17:59:31.158Z,99.50
2018-09-21T18:01:59.648Z,98.40
2018-09-21T18:04:28.073Z,97.60
2018-09-21T18:06:56.642Z,97.00
2018-09-21T18:09:25.286Z,94.00
2018-09-21T18:11:53.809Z,94.00
2018-09-21T18:14:22.287Z,95.00
2018-09-21T18:16:50.763Z,95.20
2018-09-21T18:19:19.214Z,95.40
2018-09-21T18:21:47.754Z,94.30
2018-09-21T18:24:16.298Z,94.70
2018-09-21T18:26:44.779Z,94.20
2018-09-21T18:29:13.329Z,94.80
2018-09-21T18:31:41.832Z,95.70
2018-09-21T18:34:10.306Z,96.80
2018-09-21T18:36:38.818Z,97.40
2018-09-21T18:39:08.107Z,97.40
2018-09-21T18:41:36.599Z,97.70
2018-09-21T18:44:05.645Z,98.00
2018-09-21T18:46:34.162Z,95.30
2018-09-21T18:49:02.827Z,93.70
2018-09-21T18:51:31.421Z,93.20
2018-09-21T18:53:59.882Z,92.50
2018-09-21T18:56:28.381Z,93.00
2018-09-21T18:58:56.879Z,92.10
2018-09-21T19:01:25.339Z,92.00
2018-09-21T19:03:53.781Z,92.90
2018-09-21T19:06:22.314Z,94.40
2018-09-21T19:08:50.922Z,95.10
2018-09-21T19:11:19.390Z,95.50
2018-09-21T19:13:47.941Z,95.20
2018-09-21T19:16:16.542Z,95.10
2018-09-21T19:18:45.030Z,94.70
2018-09-21T19:21:13.530Z,95.00
2018-09-21T19:23:41.990Z,96.00
2018-09-21T19:26:10.522Z,96.10
2018-09-21T19:28:39.018Z,96.50
2018-09-21T19:31:07.511Z,96.50
2018-09-21T19:33:35.958Z,95.90
2018-09-21T19:36:04.562Z,95.70
2018-09-21T19:38:33.067Z,96.50
2018-09-21T19:41:01.502Z,96.70
2018-09-21T19:43:30.021Z,97.30
2018-09-21T19:45:58.502Z,97.20
2018-09-21T19:48:26.934Z,97.40
2018-09-21T19:50:55.555Z,96.90
2018-09-21T19:53:24.008Z,96.90
2018-09-21T19:55:52.455Z,96.70
2018-09-21T19:58:21.021Z,96.40
2018-09-21T20:00:49.515Z,96.90
2018-09-21T20:03:17.977Z,95.50
2018-09-21T20:05:46.516Z,95.90
2018-09-21T20:08:14.978Z,95.80
2018-09-21T20:10:43.463Z,96.10
2018-09-21T20:13:12.012Z,96.10
2018-09-21T20:15:40.489Z,95.00
2018-09-21T20:18:08.962Z,95.00
2018-09-21T20:20:37.446Z,95.50
2018-09-21T20:23:05.944Z,95.80
2018-09-21T20:25:34.416Z,96.30
2018-09-21T20:28:02.942Z,96.50
2018-09-21T20:30:36.818Z,96.80
2018-09-21T20:33:10.678Z,97.40
2018-09-21T20:35:39.221Z,97.90
2018-09-21T20:38:07.632Z,97.20
2018-09-21T20:40:36.174Z,96.70
2018-09-21T20:43:04.654Z,96.30
2018-09-21T20:45:33.142Z,95.30
2018-09-21T20:48:01.886Z,94.30
2018-09-21T20:50:30.381Z,93.70
2018-09-21T20:52:58.830Z,93.70
2018-09-21T20:55:27.370Z,94.00
2018-09-21T20:57:55.848Z,94.70
2018-09-21T21:00:24.324Z,94.20
2018-09-21T21:02:52.822Z,94.50
2018-09-21T21:05:21.417Z,95.20
2018-09-21T21:07:49.882Z,95.10
2018-09-21T21:10:18.446Z,94.70
2018-09-21T21:12:46.926Z,94.80
2018-09-21T21:15:15.454Z,95.00
2018-09-21T21:17:45.196Z,95.50
2018-09-21T21:20:13.698Z,95.70
2018-09-21T21:22:42.160Z,95.90
2018-09-21T21:25:10.905Z,96.00
2018-09-21T21:27:39.438Z,95.90
2018-09-21T21:30:07.904Z,95.70
2018-09-21T21:32:36.395Z,96.60
2018-09-21T21:35:04.982Z,96.90
2018-09-21T21:37:33.462Z,96.90
2018-09-21T21:40:01.920Z,96.90
2018-09-21T21:42:30.378Z,96.90
2018-09-21T21:44:58.820Z,96.30
2018-09-21T21:47:27.395Z,95.30
2018-09-21T21:49:55.869Z,95.50
2018-09-21T21:52:24.484Z,95.00
2018-09-21T21:54:53.047Z,95.40
2018-09-21T21:57:21.478Z,95.70
2018-09-21T21:59:49.978Z,95.50
2018-09-21T22:02:18.462Z,95.20
2018-09-21T22:04:47.041Z,95.20
2018-09-21T22:07:15.475Z,95.40
2018-09-21T22:09:43.997Z,96.00
2018-09-21T22:14:21.995Z,96.30
2018-09-21T22:16:50.710Z,96.40
2018-09-21T22:19:19.158Z,95.30
2018-09-21T22:21:48.522Z,96.00
2018-09-21T22:24:17.095Z,95.70
2018-09-21T22:26:45.563Z,96.30
2018-09-21T22:29:14.058Z,95.40
2018-09-21T22:31:42.562Z,94.50
2018-09-21T22:34:11.030Z,95.30
2018-09-21T22:36:39.730Z,95.50
2018-09-21T22:39:08.750Z,95.70
2018-09-21T22:41:37.261Z,95.80
2018-09-21T22:44:05.747Z,95.30
2018-09-21T22:46:34.399Z,96.00
2018-09-21T22:49:04.958Z,96.00
2018-09-21T22:51:33.432Z,95.80
2018-09-21T22:54:01.966Z,95.20
2018-09-21T22:56:30.434Z,95.40
2018-09-21T22:58:58.939Z,95.40
2018-09-21T23:01:27.482Z,95.60
2018-09-21T23:03:55.950Z,96.10
2018-09-21T23:06:24.381Z,96.30
2018-09-21T23:08:52.894Z,96.70
2018-09-21T23:11:21.362Z,96.60
2018-09-21T23:13:50.215Z,96.10
2018-09-21T23:16:18.726Z,96.20
2018-09-21T23:18:47.198Z,96.70
2018-09-21T23:21:15.675Z,97.10
2018-09-21T23:23:44.170Z,96.80
2018-09-21T23:26:12.714Z,96.50
2018-09-21T23:28:41.154Z,97.10
2018-09-21T23:31:10.198Z,97.70
2018-09-21T23:33:38.671Z,97.40
2018-09-21T23:36:07.162Z,98.10
2018-09-21T23:38:35.602Z,98.30
2018-09-21T23:41:04.058Z,98.10
2018-09-21T23:43:32.471Z,98.50
2018-09-21T23:46:00.965Z,98.70
2018-09-21T23:48:29.422Z,98.90
2018-09-21T23:50:57.857Z,99.40
2018-09-21T23:53:26.298Z,99.90
2018-09-21T23:55:54.786Z,99.90
2018-09-21T23:58:23.274Z,99.90
